sensor_id;sensor_type;location;lat;lon;timestamp;pressure;altitude;pressure_sealevel;temperature;humidity
53689;BME280;39583;54.682;30.662;2022-12-08T07:36:11;98948.94;;;-1.06;100.00
53689;BME280;39583;54.682;30.662;2022-12-08T07:38:37;98961.72;;;-0.94;100.00
53689;BME280;39583;54.682;30.662;2022-12-08T11:15:02;99126.75;;;0.14;95.39
53689;BME280;39583;54.682;30.662;2022-12-08T11:17:37;99130.91;;;0.25;94.28
53689;BME280;39583;54.682;30.662;2022-12-08T11:22:44;99133.94;;;0.46;93.23
53689;BME280;39583;54.682;30.662;2022-12-08T11:27:47;99145.22;;;0.56;91.99
53689;BME280;39583;54.682;30.662;2022-12-08T11:32:48;99145.22;;;0.56;91.76
53689;BME280;39583;54.682;30.662;2022-12-08T11:37:46;99146.53;;;0.52;91.42
53689;BME280;39583;54.682;30.662;2022-12-08T11:40:16;99145.22;;;0.56;91.51
53689;BME280;39583;54.682;30.662;2022-12-08T11:43:05;99153.16;;;0.56;91.02
53689;BME280;39583;54.682;30.662;2022-12-08T11:45:35;99150.84;;;0.53;90.92
53689;BME280;39583;54.682;30.662;2022-12-08T11:48:15;99160.63;;;0.53;90.99
53689;BME280;39583;54.682;30.662;2022-12-08T11:51:10;99168.06;;;0.57;90.84
53689;BME280;39583;54.682;30.662;2022-12-08T11:56:23;99155.13;;;0.63;90.97
53689;BME280;39583;54.682;30.662;2022-12-08T11:59:01;99155.81;;;0.65;90.58
53689;BME280;39583;54.682;30.662;2022-12-08T12:01:33;99170.56;;;0.67;90.20
53689;BME280;39583;54.682;30.662;2022-12-08T12:18:04;99182.97;;;0.58;89.88
53689;BME280;39583;54.682;30.662;2022-12-08T12:20:36;99168.88;;;0.58;89.80
53689;BME280;39583;54.682;30.662;2022-12-08T12:23:28;99179.31;;;0.59;90.06
53689;BME280;39583;54.682;30.662;2022-12-08T12:26:00;99177.84;;;0.57;89.85
53689;BME280;39583;54.682;30.662;2022-12-08T12:28:33;99181.81;;;0.53;89.53
53689;BME280;39583;54.682;30.662;2022-12-08T12:31:07;99187.25;;;0.51;89.44
53689;BME280;39583;54.682;30.662;2022-12-08T12:33:35;99190.06;;;0.50;89.35
53689;BME280;39583;54.682;30.662;2022-12-08T12:36:05;99181.28;;;0.49;89.58
53689;BME280;39583;54.682;30.662;2022-12-08T12:38:41;99181.28;;;0.49;89.38
53689;BME280;39583;54.682;30.662;2022-12-08T12:41:57;99193.53;;;0.50;89.63
53689;BME280;39583;54.682;30.662;2022-12-08T12:44:37;99195.19;;;0.51;89.54
53689;BME280;39583;54.682;30.662;2022-12-08T12:47:09;99194.22;;;0.52;89.14
53689;BME280;39583;54.682;30.662;2022-12-08T12:57:21;99204.13;;;0.50;88.83
53689;BME280;39583;54.682;30.662;2022-12-08T13:02:28;99219.19;;;0.50;88.29
53689;BME280;39583;54.682;30.662;2022-12-08T13:05:09;99217.38;;;0.50;88.20
53689;BME280;39583;54.682;30.662;2022-12-08T13:10:38;99213.91;;;0.50;88.36
53689;BME280;39583;54.682;30.662;2022-12-08T13:18:27;99224.31;;;0.51;88.01
53689;BME280;39583;54.682;30.662;2022-12-08T13:26:26;99241.91;;;0.52;87.69
53689;BME280;39583;54.682;30.662;2022-12-08T13:34:19;99257.09;;;0.50;87.58
53689;BME280;39583;54.682;30.662;2022-12-08T13:44:45;99262.41;;;0.50;87.46
53689;BME280;39583;54.682;30.662;2022-12-08T13:47:16;99259.91;;;0.49;86.94
53689;BME280;39583;54.682;30.662;2022-12-08T13:49:50;99265.06;;;0.50;86.91
53689;BME280;39583;54.682;30.662;2022-12-08T13:52:43;99274.66;;;0.51;87.17
53689;BME280;39583;54.682;30.662;2022-12-08T13:55:16;99283.59;;;0.50;87.12
53689;BME280;39583;54.682;30.662;2022-12-08T13:57:47;99286.25;;;0.50;87.04
53689;BME280;39583;54.682;30.662;2022-12-08T14:00:18;99273.97;;;0.41;87.12
53689;BME280;39583;54.682;30.662;2022-12-08T14:02:50;99305.78;;;0.49;86.65
53689;BME280;39583;54.682;30.662;2022-12-08T14:05:19;99305.13;;;0.47;87.13
53689;BME280;39583;54.682;30.662;2022-12-08T14:07:48;99303.47;;;0.46;86.68
53689;BME280;39583;54.682;30.662;2022-12-08T14:10:25;99307.75;;;0.47;86.86
53689;BME280;39583;54.682;30.662;2022-12-08T14:13:03;99302.47;;;0.47;87.20
53689;BME280;39583;54.682;30.662;2022-12-08T14:15:34;99310.41;;;0.47;86.95
53689;BME280;39583;54.682;30.662;2022-12-08T14:18:00;99296.16;;;0.40;87.21
53689;BME280;39583;54.682;30.662;2022-12-08T14:20:29;99313.72;;;0.49;87.07
53689;BME280;39583;54.682;30.662;2022-12-08T14:22:56;99316.53;;;0.48;87.31
53689;BME280;39583;54.682;30.662;2022-12-08T14:25:25;99302.44;;;0.39;87.08
53689;BME280;39583;54.682;30.662;2022-12-08T14:28:00;99316.38;;;0.49;87.28
53689;BME280;39583;54.682;30.662;2022-12-08T14:30:32;99310.56;;;0.46;86.88
53689;BME280;39583;54.682;30.662;2022-12-08T14:33:03;99321.69;;;0.49;86.95
53689;BME280;39583;54.682;30.662;2022-12-08T14:35:34;99309.75;;;0.45;86.86
53689;BME280;39583;54.682;30.662;2022-12-08T14:38:04;99328.78;;;0.49;86.96
53689;BME280;39583;54.682;30.662;2022-12-08T14:45:30;99326.75;;;0.35;86.53
53689;BME280;39583;54.682;30.662;2022-12-08T14:56:35;99339.81;;;0.36;86.62
53689;BME280;39583;54.682;30.662;2022-12-08T15:01:35;99324.19;;;0.25;86.15
53689;BME280;39583;54.682;30.662;2022-12-08T15:06:33;99356.69;;;0.35;85.84
53689;BME280;39583;54.682;30.662;2022-12-08T15:09:14;99343.44;;;0.27;85.95
53689;BME280;39583;54.682;30.662;2022-12-08T15:11:40;99356.69;;;0.35;85.68
53689;BME280;39583;54.682;30.662;2022-12-08T15:14:26;99365.47;;;0.36;85.91
53689;BME280;39583;54.682;30.662;2022-12-08T15:16:52;99368.28;;;0.34;85.60
53689;BME280;39583;54.682;30.662;2022-12-08T15:19:29;99369.94;;;0.35;85.68
53689;BME280;39583;54.682;30.662;2022-12-08T15:21:57;99371.75;;;0.35;85.63
53689;BME280;39583;54.682;30.662;2022-12-08T15:24:28;99370.78;;;0.36;85.83
53689;BME280;39583;54.682;30.662;2022-12-08T15:26:55;99353.31;;;0.25;85.57
53689;BME280;39583;54.682;30.662;2022-12-08T15:31:51;99382.19;;;0.36;85.32
53689;BME280;39583;54.682;30.662;2022-12-08T15:34:18;99373.59;;;0.34;85.58
53689;BME280;39583;54.682;30.662;2022-12-08T15:36:45;99380.84;;;0.32;85.00
53689;BME280;39583;54.682;30.662;2022-12-08T15:39:36;99378.38;;;0.31;85.03
53689;BME280;39583;54.682;30.662;2022-12-08T15:42:05;99381.84;;;0.31;84.98
53689;BME280;39583;54.682;30.662;2022-12-08T15:44:35;99383.81;;;0.29;84.62
53689;BME280;39583;54.682;30.662;2022-12-08T15:47:01;99391.09;;;0.27;84.50
53689;BME280;39583;54.682;30.662;2022-12-08T15:49:27;99389.56;;;0.24;84.23
53689;BME280;39583;54.682;30.662;2022-12-08T15:51:53;99391.72;;;0.21;84.03
53689;BME280;39583;54.682;30.662;2022-12-08T15:54:20;99399.97;;;0.18;83.89
53689;BME280;39583;54.682;30.662;2022-12-08T15:56:52;99395.66;;;0.17;83.83
53689;BME280;39583;54.682;30.662;2022-12-08T15:59:23;99395.97;;;0.14;83.64
53689;BME280;39583;54.682;30.662;2022-12-08T16:01:51;99392.75;;;0.02;83.65
53689;BME280;39583;54.682;30.662;2022-12-08T16:04:20;99411.16;;;0.12;83.20
53689;BME280;39583;54.682;30.662;2022-12-08T16:06:51;99406.84;;;0.11;83.15
53689;BME280;39583;54.682;30.662;2022-12-08T16:09:28;99401.03;;;0.07;83.36
53689;BME280;39583;54.682;30.662;2022-12-08T16:11:55;99412.97;;;0.11;83.48
53689;BME280;39583;54.682;30.662;2022-12-08T16:14:40;99412.00;;;0.12;83.05
53689;BME280;39583;54.682;30.662;2022-12-08T16:17:12;99391.91;;;0.02;83.18
53689;BME280;39583;54.682;30.662;2022-12-08T16:19:39;99382.59;;;-0.03;82.89
53689;BME280;39583;54.682;30.662;2022-12-08T16:22:07;99400.56;;;0.12;83.22
53689;BME280;39583;54.682;30.662;2022-12-08T16:24:33;99406.19;;;0.09;82.92
53689;BME280;39583;54.682;30.662;2022-12-08T16:26:59;99409.50;;;0.11;83.08
53689;BME280;39583;54.682;30.662;2022-12-08T16:29:26;99414.94;;;0.09;82.82
53689;BME280;39583;54.682;30.662;2022-12-08T16:31:52;99403.34;;;0.02;82.73
53689;BME280;39583;54.682;30.662;2022-12-08T16:34:18;99419.41;;;0.09;82.74
53689;BME280;39583;54.682;30.662;2022-12-08T16:36:45;99421.06;;;0.10;82.97
53689;BME280;39583;54.682;30.662;2022-12-08T16:39:11;99416.78;;;0.09;82.33
53689;BME280;39583;54.682;30.662;2022-12-08T16:41:38;99422.91;;;0.09;82.33
53689;BME280;39583;54.682;30.662;2022-12-08T16:44:23;99412.94;;;0.03;82.17
53689;BME280;39583;54.682;30.662;2022-12-08T16:46:49;99424.34;;;0.04;81.91
53689;BME280;39583;54.682;30.662;2022-12-08T16:49:15;99427.31;;;0.01;81.97
53689;BME280;39583;54.682;30.662;2022-12-08T16:51:42;99430.09;;;-0.01;81.57
53689;BME280;39583;54.682;30.662;2022-12-08T16:54:09;99432.22;;;-0.05;81.61
53689;BME280;39583;54.682;30.662;2022-12-08T16:56:36;99424.59;;;-0.08;81.29
53689;BME280;39583;54.682;30.662;2022-12-08T16:59:03;99426.56;;;-0.10;81.50
53689;BME280;39583;54.682;30.662;2022-12-08T17:01:29;99426.72;;;-0.11;81.28
53689;BME280;39583;54.682;30.662;2022-12-08T17:03:55;99425.34;;;-0.15;81.47
53689;BME280;39583;54.682;30.662;2022-12-08T17:06:22;99432.84;;;-0.11;81.78
53689;BME280;39583;54.682;30.662;2022-12-08T17:08:48;99431.03;;;-0.10;81.55
53689;BME280;39583;54.682;30.662;2022-12-08T17:11:22;99437.00;;;-0.08;81.44
53689;BME280;39583;54.682;30.662;2022-12-08T17:13:51;99435.50;;;-0.11;81.51
53689;BME280;39583;54.682;30.662;2022-12-08T17:16:17;99444.25;;;-0.10;81.71
53689;BME280;39583;54.682;30.662;2022-12-08T17:18:44;99448.88;;;-0.12;81.44
53689;BME280;39583;54.682;30.662;2022-12-08T17:21:13;99448.88;;;-0.12;81.53
53689;BME280;39583;54.682;30.662;2022-12-08T17:23:41;99442.88;;;-0.14;81.25
53689;BME280;39583;54.682;30.662;2022-12-08T17:26:08;99436.38;;;-0.20;81.30
53689;BME280;39583;54.682;30.662;2022-12-08T17:28:35;99449.16;;;-0.15;81.24
53689;BME280;39583;54.682;30.662;2022-12-08T17:31:01;99445.69;;;-0.16;81.33
53689;BME280;39583;54.682;30.662;2022-12-08T17:33:32;99443.34;;;-0.19;81.70
53689;BME280;39583;54.682;30.662;2022-12-08T17:35:59;99447.50;;;-0.16;81.71
53689;BME280;39583;54.682;30.662;2022-12-08T17:38:26;99451.81;;;-0.15;81.29
53689;BME280;39583;54.682;30.662;2022-12-08T17:40:54;99462.38;;;-0.15;81.43
53689;BME280;39583;54.682;30.662;2022-12-08T17:43:20;99458.91;;;-0.16;81.29
53689;BME280;39583;54.682;30.662;2022-12-08T17:45:50;99462.22;;;-0.14;81.83
53689;BME280;39583;54.682;30.662;2022-12-08T17:48:17;99465.59;;;-0.12;81.33
53689;BME280;39583;54.682;30.662;2022-12-08T17:50:44;99468.34;;;-0.13;81.13
53689;BME280;39583;54.682;30.662;2022-12-08T17:53:11;99470.63;;;-0.18;81.08
53689;BME280;39583;54.682;30.662;2022-12-08T17:55:38;99474.94;;;-0.17;81.34
53689;BME280;39583;54.682;30.662;2022-12-08T17:58:06;99465.34;;;-0.18;81.26
53689;BME280;39583;54.682;30.662;2022-12-08T18:00:33;99468.97;;;-0.19;81.42
53689;BME280;39583;54.682;30.662;2022-12-08T18:03:00;99461.50;;;-0.24;81.60
53689;BME280;39583;54.682;30.662;2022-12-08T18:05:26;99474.09;;;-0.18;81.77
53689;BME280;39583;54.682;30.662;2022-12-08T18:07:53;99475.78;;;-0.17;81.29
53689;BME280;39583;54.682;30.662;2022-12-08T18:10:19;99453.47;;;-0.32;81.47
53689;BME280;39583;54.682;30.662;2022-12-08T18:12:46;99473.28;;;-0.18;81.53
53689;BME280;39583;54.682;30.662;2022-12-08T18:15:15;99482.22;;;-0.19;81.61
53689;BME280;39583;54.682;30.662;2022-12-08T18:17:43;99478.88;;;-0.21;81.73
53689;BME280;39583;54.682;30.662;2022-12-08T18:20:10;99487.50;;;-0.19;81.46
53689;BME280;39583;54.682;30.662;2022-12-08T18:22:38;99484.03;;;-0.20;81.36
53689;BME280;39583;54.682;30.662;2022-12-08T18:25:05;99472.66;;;-0.30;81.45
53689;BME280;39583;54.682;30.662;2022-12-08T18:27:32;99491.81;;;-0.18;81.38
53689;BME280;39583;54.682;30.662;2022-12-08T18:29:59;99505.03;;;-0.18;81.20
53689;BME280;39583;54.682;30.662;2022-12-08T18:32:27;99498.22;;;-0.21;81.48
53689;BME280;39583;54.682;30.662;2022-12-08T18:34:54;99500.06;;;-0.21;81.21
53689;BME280;39583;54.682;30.662;2022-12-08T18:37:21;99494.22;;;-0.25;81.16
53689;BME280;39583;54.682;30.662;2022-12-08T18:39:48;99491.88;;;-0.28;80.98
53689;BME280;39583;54.682;30.662;2022-12-08T18:42:16;99476.50;;;-0.42;80.96
53689;BME280;39583;54.682;30.662;2022-12-08T18:44:50;99492.69;;;-0.27;80.87
53689;BME280;39583;54.682;30.662;2022-12-08T18:47:18;99494.50;;;-0.28;80.89
53689;BME280;39583;54.682;30.662;2022-12-08T18:49:45;99494.50;;;-0.28;80.76
53689;BME280;39583;54.682;30.662;2022-12-08T18:52:12;99498.97;;;-0.28;80.85
53689;BME280;39583;54.682;30.662;2022-12-08T18:54:38;99500.94;;;-0.31;80.82
53689;BME280;39583;54.682;30.662;2022-12-08T18:57:05;99512.66;;;-0.33;80.73
53689;BME280;39583;54.682;30.662;2022-12-08T18:59:32;99504.72;;;-0.33;80.74
53689;BME280;39583;54.682;30.662;2022-12-08T19:01:58;99513.34;;;-0.31;80.43
53689;BME280;39583;54.682;30.662;2022-12-08T19:04:24;99512.19;;;-0.28;80.63
53689;BME280;39583;54.682;30.662;2022-12-08T19:06:52;99516.66;;;-0.29;80.25
53689;BME280;39583;54.682;30.662;2022-12-08T19:09:18;99519.97;;;-0.27;80.39
53689;BME280;39583;54.682;30.662;2022-12-08T19:11:44;99522.63;;;-0.27;80.59
53689;BME280;39583;54.682;30.662;2022-12-08T19:14:13;99520.97;;;-0.28;80.49
